Argonne, Minnesota
Current Conditions -  °F | °C
As of 1:49 PM on Saturday 25 Oct 2014 (Local Time) from KLVN Reporting Station
Clear Clear  
Wind Chill: 61°   Ceiling: Unl
Heat Index: 61°   Visibility: 10mi
Dew Point: 30°   Wind: 17mph
Humidity: 31%   Direction: 280°W
Pressure: 30.04"   Gusts: 23mph
Location:  44.6349°N, 93.283°W
Report Text: KLVN 251849Z AUTO 28015G20KT 10SM CLR 16/M01 A3004 RMK AO2
Loading
Personal Weather Stations






























Interactive Weather Map
Tropical Storm Tracking
New forecast layout! Learn more

10-Day Weather Forecast

Advertisements
Track Severe Weather on mobile